sensor_id;sensor_type;location;lat;lon;timestamp;pressure;altitude;pressure_sealevel;temperature;humidity
6853;BME280;3465;42.144;24.722;2024-01-10T00:01:48;101068.22;;;-0.51;82.04
6853;BME280;3465;42.144;24.722;2024-01-10T00:04:14;101070.81;;;-0.38;82.10
6853;BME280;3465;42.144;24.722;2024-01-10T00:06:42;101071.69;;;-0.30;81.98
6853;BME280;3465;42.144;24.722;2024-01-10T00:09:08;101074.19;;;-0.42;81.71
6853;BME280;3465;42.144;24.722;2024-01-10T00:11:34;101071.66;;;-0.36;81.23
6853;BME280;3465;42.144;24.722;2024-01-10T00:13:59;101072.53;;;-0.37;81.32
6853;BME280;3465;42.144;24.722;2024-01-10T00:16:26;101074.25;;;-0.33;81.33
6853;BME280;3465;42.144;24.722;2024-01-10T00:18:52;101071.72;;;-0.27;80.84
6853;BME280;3465;42.144;24.722;2024-01-10T00:21:17;101075.06;;;-0.43;80.86
6853;BME280;3465;42.144;24.722;2024-01-10T00:23:43;101081.91;;;-0.30;80.50
6853;BME280;3465;42.144;24.722;2024-01-10T00:26:08;101086.97;;;-0.37;80.63
6853;BME280;3465;42.144;24.722;2024-01-10T00:28:34;101092.06;;;-0.45;81.25
6853;BME280;3465;42.144;24.722;2024-01-10T00:30:59;101090.31;;;-0.55;81.71
6853;BME280;3465;42.144;24.722;2024-01-10T00:33:25;101090.22;;;-0.71;81.87
6853;BME280;3465;42.144;24.722;2024-01-10T00:35:50;101083.47;;;-0.62;82.14
6853;BME280;3465;42.144;24.722;2024-01-10T00:38:15;101089.41;;;-0.70;82.78
6853;BME280;3465;42.144;24.722;2024-01-10T00:40:41;101093.66;;;-0.65;82.48
6853;BME280;3465;42.144;24.722;2024-01-10T00:43:07;101083.47;;;-0.63;81.87
6853;BME280;3465;42.144;24.722;2024-01-10T00:45:33;101091.97;;;-0.64;81.88
6853;BME280;3465;42.144;24.722;2024-01-10T00:47:58;101098.84;;;-0.51;81.36
6853;BME280;3465;42.144;24.722;2024-01-10T00:50:24;101088.56;;;-0.62;81.34
6853;BME280;3465;42.144;24.722;2024-01-10T00:52:49;101099.59;;;-0.66;81.18
6853;BME280;3465;42.144;24.722;2024-01-10T00:55:15;101100.53;;;-0.56;81.29
6853;BME280;3465;42.144;24.722;2024-01-10T00:57:41;101100.50;;;-0.59;81.39
6853;BME280;3465;42.144;24.722;2024-01-10T01:00:07;101103.97;;;-0.48;80.43
6853;BME280;3465;42.144;24.722;2024-01-10T01:02:34;101093.66;;;-0.66;81.25
6853;BME280;3465;42.144;24.722;2024-01-10T01:05:00;101095.41;;;-0.53;80.95
6853;BME280;3465;42.144;24.722;2024-01-10T01:07:26;101096.28;;;-0.54;81.57
6853;BME280;3465;42.144;24.722;2024-01-10T01:09:52;101092.94;;;-0.43;79.86
6853;BME280;3465;42.144;24.722;2024-01-10T01:12:17;101090.31;;;-0.56;80.65
6853;BME280;3465;42.144;24.722;2024-01-10T01:14:43;101089.41;;;-0.70;81.27
6853;BME280;3465;42.144;24.722;2024-01-10T01:17:08;101090.97;;;-0.89;81.89
6853;BME280;3465;42.144;24.722;2024-01-10T01:19:34;101098.75;;;-0.68;81.38
6853;BME280;3465;42.144;24.722;2024-01-10T01:21:59;101097.94;;;-0.59;80.68
6853;BME280;3465;42.144;24.722;2024-01-10T01:24:25;101093.69;;;-0.60;80.75
6853;BME280;3465;42.144;24.722;2024-01-10T01:26:50;101087.78;;;-0.49;81.01
6853;BME280;3465;42.144;24.722;2024-01-10T01:29:16;101100.56;;;-0.41;80.36
6853;BME280;3465;42.144;24.722;2024-01-10T01:31:41;101092.09;;;-0.39;80.50
6853;BME280;3465;42.144;24.722;2024-01-10T01:34:07;101093.78;;;-0.41;80.14
6853;BME280;3465;42.144;24.722;2024-01-10T01:36:32;101097.19;;;-0.37;79.60
6853;BME280;3465;42.144;24.722;2024-01-10T01:38:59;101089.50;;;-0.43;80.02
6853;BME280;3465;42.144;24.722;2024-01-10T01:41:24;101088.69;;;-0.42;80.56
6853;BME280;3465;42.144;24.722;2024-01-10T01:43:50;101092.09;;;-0.37;79.92
6853;BME280;3465;42.144;24.722;2024-01-10T01:46:15;101093.78;;;-0.38;80.00
6853;BME280;3465;42.144;24.722;2024-01-10T01:48:41;101093.81;;;-0.36;79.21
6853;BME280;3465;42.144;24.722;2024-01-10T01:51:08;101100.63;;;-0.28;79.52
6853;BME280;3465;42.144;24.722;2024-01-10T01:53:35;101093.75;;;-0.48;78.82
6853;BME280;3465;42.144;24.722;2024-01-10T01:56:05;101092.88;;;-0.56;79.41
6853;BME280;3465;42.144;24.722;2024-01-10T01:58:31;101093.75;;;-0.48;79.64
6853;BME280;3465;42.144;24.722;2024-01-10T02:00:57;101095.53;;;-0.29;79.27
6853;BME280;3465;42.144;24.722;2024-01-10T02:03:23;101080.22;;;-0.25;78.37
6853;BME280;3465;42.144;24.722;2024-01-10T02:05:49;101080.25;;;-0.16;79.24
6853;BME280;3465;42.144;24.722;2024-01-10T02:08:15;101062.34;;;-0.22;77.45
6853;BME280;3465;42.144;24.722;2024-01-10T02:10:40;101077.69;;;-0.26;77.22
6853;BME280;3465;42.144;24.722;2024-01-10T02:13:06;101076.81;;;-0.28;77.12
6853;BME280;3465;42.144;24.722;2024-01-10T02:15:35;101068.28;;;-0.35;78.02
6853;BME280;3465;42.144;24.722;2024-01-10T02:18:00;101063.97;;;-0.42;78.58
6853;BME280;3465;42.144;24.722;2024-01-10T02:20:26;101068.25;;;-0.41;78.24
6853;BME280;3465;42.144;24.722;2024-01-10T02:22:51;101064.00;;;-0.43;78.43
6853;BME280;3465;42.144;24.722;2024-01-10T02:25:17;101063.97;;;-0.48;78.47
6853;BME280;3465;42.144;24.722;2024-01-10T02:27:43;101064.81;;;-0.46;78.39
6853;BME280;3465;42.144;24.722;2024-01-10T02:30:09;101065.69;;;-0.39;78.75
6853;BME280;3465;42.144;24.722;2024-01-10T02:32:35;101064.00;;;-0.46;77.89
6853;BME280;3465;42.144;24.722;2024-01-10T02:35:01;101068.13;;;-0.68;79.48
6853;BME280;3465;42.144;24.722;2024-01-10T02:37:27;101062.13;;;-0.80;79.96
6853;BME280;3465;42.144;24.722;2024-01-10T02:39:52;101063.81;;;-0.78;80.15
6853;BME280;3465;42.144;24.722;2024-01-10T02:42:18;101060.38;;;-0.89;79.82
6853;BME280;3465;42.144;24.722;2024-01-10T02:44:43;101063.81;;;-0.81;79.04
6853;BME280;3465;42.144;24.722;2024-01-10T02:47:10;101065.53;;;-0.75;78.75
6853;BME280;3465;42.144;24.722;2024-01-10T02:49:36;101068.09;;;-0.78;79.90
6853;BME280;3465;42.144;24.722;2024-01-10T02:52:02;101068.16;;;-0.63;79.21
6853;BME280;3465;42.144;24.722;2024-01-10T02:54:28;101057.09;;;-0.65;78.53
6853;BME280;3465;42.144;24.722;2024-01-10T02:56:53;101062.09;;;-0.83;78.92
6853;BME280;3465;42.144;24.722;2024-01-10T02:59:19;101024.63;;;-0.95;78.16
6853;BME280;3465;42.144;24.722;2024-01-10T03:01:44;101056.25;;;-0.64;78.46
6853;BME280;3465;42.144;24.722;2024-01-10T03:04:10;101060.44;;;-0.77;78.73
6853;BME280;3465;42.144;24.722;2024-01-10T03:06:35;101063.00;;;-0.75;77.80
6853;BME280;3465;42.144;24.722;2024-01-10T03:09:01;101057.06;;;-0.71;77.39
6853;BME280;3465;42.144;24.722;2024-01-10T03:11:26;101053.66;;;-0.75;77.21
6853;BME280;3465;42.144;24.722;2024-01-10T03:14:01;101058.78;;;-0.70;76.48
6853;BME280;3465;42.144;24.722;2024-01-10T03:16:27;101060.50;;;-0.63;77.45
6853;BME280;3465;42.144;24.722;2024-01-10T03:18:52;101052.91;;;-0.54;77.34
6853;BME280;3465;42.144;24.722;2024-01-10T03:21:18;101056.31;;;-0.48;76.42
6853;BME280;3465;42.144;24.722;2024-01-10T03:24:00;101056.34;;;-0.40;75.88
6853;BME280;3465;42.144;24.722;2024-01-10T03:26:26;101051.25;;;-0.40;76.28
6853;BME280;3465;42.144;24.722;2024-01-10T03:28:52;101052.13;;;-0.32;77.17
6853;BME280;3465;42.144;24.722;2024-01-10T03:31:18;101028.22;;;-0.49;76.32
6853;BME280;3465;42.144;24.722;2024-01-10T03:33:44;101048.72;;;-0.30;75.73
6853;BME280;3465;42.144;24.722;2024-01-10T03:36:15;101046.97;;;-0.40;76.24
6853;BME280;3465;42.144;24.722;2024-01-10T03:38:41;101052.09;;;-0.34;75.80
6853;BME280;3465;42.144;24.722;2024-01-10T03:41:07;101053.81;;;-0.30;75.49
6853;BME280;3465;42.144;24.722;2024-01-10T03:43:32;101058.13;;;-0.24;75.03
6853;BME280;3465;42.144;24.722;2024-01-10T03:49:19;101041.84;;;-0.55;76.46
6853;BME280;3465;42.144;24.722;2024-01-10T03:55:06;101052.97;;;-0.36;75.16
6853;BME280;3465;42.144;24.722;2024-01-10T04:00:53;101053.78;;;-0.42;76.44
6853;BME280;3465;42.144;24.722;2024-01-10T04:03:19;101058.94;;;-0.33;76.31
6853;BME280;3465;42.144;24.722;2024-01-10T04:05:44;101059.78;;;-0.31;76.04
6853;BME280;3465;42.144;24.722;2024-01-10T04:08:10;101057.22;;;-0.31;76.56
6853;BME280;3465;42.144;24.722;2024-01-10T04:10:35;101058.09;;;-0.26;76.62
6853;BME280;3465;42.144;24.722;2024-01-10T04:13:01;101062.41;;;-0.13;76.41
6853;BME280;3465;42.144;24.722;2024-01-10T04:15:27;101062.38;;;-0.11;75.70
6853;BME280;3465;42.144;24.722;2024-01-10T04:17:52;101059.88;;;-0.08;75.53
6853;BME280;3465;42.144;24.722;2024-01-10T04:20:18;101066.66;;;-0.10;74.94
6853;BME280;3465;42.144;24.722;2024-01-10T04:22:43;101064.09;;;-0.07;75.85
6853;BME280;3465;42.144;24.722;2024-01-10T04:25:10;101071.75;;;-0.07;76.61
6853;BME280;3465;42.144;24.722;2024-01-10T04:27:36;101076.03;;;-0.11;76.21
6853;BME280;3465;42.144;24.722;2024-01-10T04:30:02;101065.78;;;-0.15;75.62
6853;BME280;3465;42.144;24.722;2024-01-10T04:32:28;101073.47;;;-0.09;75.73
6853;BME280;3465;42.144;24.722;2024-01-10T04:34:53;101076.06;;;0.00;75.51
6853;BME280;3465;42.144;24.722;2024-01-10T04:37:19;101078.59;;;0.00;74.44
6853;BME280;3465;42.144;24.722;2024-01-10T04:39:44;101078.59;;;0.03;74.20
6853;BME280;3465;42.144;24.722;2024-01-10T04:42:13;101088.81;;;0.05;74.77
6853;BME280;3465;42.144;24.722;2024-01-10T04:44:38;101064.88;;;-0.34;75.40
6853;BME280;3465;42.144;24.722;2024-01-10T04:47:05;101084.50;;;-0.22;76.47
6853;BME280;3465;42.144;24.722;2024-01-10T04:49:31;101093.84;;;-0.21;76.79
6853;BME280;3465;42.144;24.722;2024-01-10T04:51:56;101093.88;;;-0.09;76.17
6853;BME280;3465;42.144;24.722;2024-01-10T04:54:22;101096.44;;;-0.18;76.19
6853;BME280;3465;42.144;24.722;2024-01-10T04:56:48;101104.91;;;-0.25;76.40
6853;BME280;3465;42.144;24.722;2024-01-10T04:59:13;101101.47;;;-0.26;75.89
6853;BME280;3465;42.144;24.722;2024-01-10T05:01:39;101100.56;;;-0.41;77.09
6853;BME280;3465;42.144;24.722;2024-01-10T05:04:05;101105.69;;;-0.40;76.83
6853;BME280;3465;42.144;24.722;2024-01-10T05:06:30;101105.75;;;-0.31;76.38
6853;BME280;3465;42.144;24.722;2024-01-10T05:08:56;101101.47;;;-0.36;76.70
6853;BME280;3465;42.144;24.722;2024-01-10T05:11:24;101110.03;;;-0.21;76.25
6853;BME280;3465;42.144;24.722;2024-01-10T05:13:51;101111.75;;;-0.18;76.13
6853;BME280;3465;42.144;24.722;2024-01-10T05:16:16;101112.56;;;-0.18;76.20
6853;BME280;3465;42.144;24.722;2024-01-10T05:18:42;101110.84;;;-0.31;76.62
6853;BME280;3465;42.144;24.722;2024-01-10T05:21:08;101115.97;;;-0.26;76.48
6853;BME280;3465;42.144;24.722;2024-01-10T05:23:33;101118.50;;;-0.29;76.56
6853;BME280;3465;42.144;24.722;2024-01-10T05:25:59;101119.34;;;-0.32;76.70
6853;BME280;3465;42.144;24.722;2024-01-10T05:28:24;101126.16;;;-0.28;76.93
6853;BME280;3465;42.144;24.722;2024-01-10T05:30:50;101129.50;;;-0.39;77.10
6853;BME280;3465;42.144;24.722;2024-01-10T05:33:15;101132.06;;;-0.41;76.83
6853;BME280;3465;42.144;24.722;2024-01-10T05:35:41;101129.50;;;-0.38;76.68
6853;BME280;3465;42.144;24.722;2024-01-10T05:38:07;101125.38;;;-0.16;75.11
6853;BME280;3465;42.144;24.722;2024-01-10T05:40:36;101129.59;;;-0.24;75.58
6853;BME280;3465;42.144;24.722;2024-01-10T05:43:01;101127.94;;;-0.07;75.43
6853;BME280;3465;42.144;24.722;2024-01-10T05:45:27;101142.19;;;-0.56;77.01
6853;BME280;3465;42.144;24.722;2024-01-10T05:47:54;101135.28;;;-0.76;78.91
6853;BME280;3465;42.144;24.722;2024-01-10T05:50:19;101133.50;;;-0.82;78.76
6853;BME280;3465;42.144;24.722;2024-01-10T05:52:45;101116.56;;;-0.75;78.53
6853;BME280;3465;42.144;24.722;2024-01-10T05:55:11;101121.63;;;-0.80;79.33
6853;BME280;3465;42.144;24.722;2024-01-10T05:57:36;101133.59;;;-0.73;78.96
6853;BME280;3465;42.144;24.722;2024-01-10T06:00:03;101128.50;;;-0.71;78.71
6853;BME280;3465;42.144;24.722;2024-01-10T06:02:30;101131.84;;;-0.78;79.02
6853;BME280;3465;42.144;24.722;2024-01-10T06:04:55;101137.78;;;-0.82;79.12
6853;BME280;3465;42.144;24.722;2024-01-10T06:07:21;101144.63;;;-0.75;79.09
6853;BME280;3465;42.144;24.722;2024-01-10T06:09:46;101140.41;;;-0.70;79.03
6853;BME280;3465;42.144;24.722;2024-01-10T06:12:13;101145.56;;;-0.61;78.59
6853;BME280;3465;42.144;24.722;2024-01-10T06:14:39;101148.84;;;-0.76;79.13
6853;BME280;3465;42.144;24.722;2024-01-10T06:17:04;101153.06;;;-0.84;79.81
6853;BME280;3465;42.144;24.722;2024-01-10T06:19:30;101159.91;;;-0.77;79.05
6853;BME280;3465;42.144;24.722;2024-01-10T06:21:59;101161.66;;;-0.73;79.65
6853;BME280;3465;42.144;24.722;2024-01-10T06:24:25;101155.69;;;-0.73;79.29
6853;BME280;3465;42.144;24.722;2024-01-10T06:26:51;101153.13;;;-0.75;78.64
6853;BME280;3465;42.144;24.722;2024-01-10T06:29:17;101171.09;;;-0.58;77.64
6853;BME280;3465;42.144;24.722;2024-01-10T06:31:43;101181.31;;;-0.55;77.93
6853;BME280;3465;42.144;24.722;2024-01-10T06:34:08;101178.75;;;-0.57;77.97
6853;BME280;3465;42.144;24.722;2024-01-10T06:36:34;101180.44;;;-0.60;78.29
6853;BME280;3465;42.144;24.722;2024-01-10T06:39:00;101185.59;;;-0.51;78.32
6853;BME280;3465;42.144;24.722;2024-01-10T06:41:26;101187.38;;;-0.37;77.06
6853;BME280;3465;42.144;24.722;2024-01-10T06:43:52;101197.63;;;-0.32;77.29
6853;BME280;3465;42.144;24.722;2024-01-10T06:46:18;101187.47;;;-0.26;77.32
6853;BME280;3465;42.144;24.722;2024-01-10T06:48:43;101190.91;;;-0.17;76.76
6853;BME280;3465;42.144;24.722;2024-01-10T06:51:10;101199.44;;;-0.16;77.34
6853;BME280;3465;42.144;24.722;2024-01-10T06:53:37;101206.25;;;-0.09;76.85
6853;BME280;3465;42.144;24.722;2024-01-10T06:56:02;101191.81;;;-0.01;76.36
6853;BME280;3465;42.144;24.722;2024-01-10T06:58:28;101207.16;;;0.02;76.90
6853;BME280;3465;42.144;24.722;2024-01-10T07:00:53;101207.16;;;0.02;76.54
6853;BME280;3465;42.144;24.722;2024-01-10T07:03:19;101206.31;;;0.05;75.80
6853;BME280;3465;42.144;24.722;2024-01-10T07:05:44;101198.72;;;0.23;75.95
6853;BME280;3465;42.144;24.722;2024-01-10T07:08:10;101206.50;;;0.71;75.18
6853;BME280;3465;42.144;24.722;2024-01-10T07:10:35;101204.81;;;1.21;72.71
6853;BME280;3465;42.144;24.722;2024-01-10T07:13:04;101204.75;;;1.79;69.94
6853;BME280;3465;42.144;24.722;2024-01-10T07:15:30;101199.53;;;2.04;69.12
6853;BME280;3465;42.144;24.722;2024-01-10T07:17:55;101205.16;;;2.73;66.87
6853;BME280;3465;42.144;24.722;2024-01-10T07:20:21;101199.66;;;4.06;61.81
6853;BME280;3465;42.144;24.722;2024-01-10T07:22:49;101193.63;;;4.72;58.96
6853;BME280;3465;42.144;24.722;2024-01-10T07:25:15;101205.88;;;5.10;57.59
6853;BME280;3465;42.144;24.722;2024-01-10T07:27:41;101206.91;;;5.00;57.96
6853;BME280;3465;42.144;24.722;2024-01-10T07:30:08;101203.66;;;5.89;55.21
6853;BME280;3465;42.144;24.722;2024-01-10T07:32:43;101209.00;;;7.00;51.30
6853;BME280;3465;42.144;24.722;2024-01-10T07:35:09;101216.22;;;6.86;51.31
6853;BME280;3465;42.144;24.722;2024-01-10T07:37:38;101215.31;;;6.87;50.27
6853;BME280;3465;42.144;24.722;2024-01-10T07:40:05;101224.34;;;6.29;52.75
6853;BME280;3465;42.144;24.722;2024-01-10T07:42:35;101229.97;;;6.48;51.33
6853;BME280;3465;42.144;24.722;2024-01-10T07:45:01;101223.78;;;6.93;50.21
6853;BME280;3465;42.144;24.722;2024-01-10T07:47:33;101193.47;;;7.35;48.56
6853;BME280;3465;42.144;24.722;2024-01-10T07:49:59;101220.59;;;8.15;46.37
6853;BME280;3465;42.144;24.722;2024-01-10T07:52:25;101215.41;;;9.29;43.22
6853;BME280;3465;42.144;24.722;2024-01-10T07:54:51;101224.56;;;9.13;43.71
6853;BME280;3465;42.144;24.722;2024-01-10T07:57:16;101228.31;;;8.49;45.12
6853;BME280;3465;42.144;24.722;2024-01-10T07:59:47;101222.00;;;7.96;46.34
6853;BME280;3465;42.144;24.722;2024-01-10T08:02:12;101235.47;;;8.09;45.39
6853;BME280;3465;42.144;24.722;2024-01-10T08:04:38;101234.19;;;8.54;45.01
6853;BME280;3465;42.144;24.722;2024-01-10T08:07:04;101229.25;;;8.14;45.76
6853;BME280;3465;42.144;24.722;2024-01-10T08:09:29;101227.66;;;7.46;47.12
6853;BME280;3465;42.144;24.722;2024-01-10T08:11:54;101240.25;;;7.92;46.70
6853;BME280;3465;42.144;24.722;2024-01-10T08:14:20;101235.88;;;8.26;45.72
6853;BME280;3465;42.144;24.722;2024-01-10T08:16:46;101229.91;;;8.53;45.06
6853;BME280;3465;42.144;24.722;2024-01-10T08:19:11;101232.31;;;8.59;45.24
6853;BME280;3465;42.144;24.722;2024-01-10T08:21:37;101232.63;;;8.48;45.14
6853;BME280;3465;42.144;24.722;2024-01-10T08:24:03;101238.25;;;8.01;46.03
6853;BME280;3465;42.144;24.722;2024-01-10T08:26:29;101235.06;;;7.92;46.87
6853;BME280;3465;42.144;24.722;2024-01-10T08:28:54;101234.34;;;8.48;44.51
6853;BME280;3465;42.144;24.722;2024-01-10T08:31:20;101226.69;;;8.14;45.53
6853;BME280;3465;42.144;24.722;2024-01-10T08:33:46;101229.56;;;7.72;46.06
6853;BME280;3465;42.144;24.722;2024-01-10T08:36:12;101227.25;;;6.54;49.49
6853;BME280;3465;42.144;24.722;2024-01-10T08:38:40;101236.41;;;5.84;52.62
6853;BME280;3465;42.144;24.722;2024-01-10T08:41:07;101230.63;;;5.20;54.36
6853;BME280;3465;42.144;24.722;2024-01-10T08:43:33;101240.88;;;4.67;56.08
6853;BME280;3465;42.144;24.722;2024-01-10T08:45:59;101236.47;;;4.08;57.93
6853;BME280;3465;42.144;24.722;2024-01-10T08:48:24;101236.75;;;3.81;59.37
6853;BME280;3465;42.144;24.722;2024-01-10T08:50:50;101226.00;;;3.44;60.14
6853;BME280;3465;42.144;24.722;2024-01-10T08:53:16;101238.19;;;3.19;60.64
6853;BME280;3465;42.144;24.722;2024-01-10T08:55:42;101239.06;;;3.17;60.93
6853;BME280;3465;42.144;24.722;2024-01-10T08:58:07;101231.56;;;2.90;62.91
6853;BME280;3465;42.144;24.722;2024-01-10T09:00:33;101220.63;;;2.61;62.79
6853;BME280;3465;42.144;24.722;2024-01-10T09:03:00;101232.66;;;2.49;63.46
6853;BME280;3465;42.144;24.722;2024-01-10T09:05:26;101222.28;;;2.71;62.09
6853;BME280;3465;42.144;24.722;2024-01-10T09:07:51;101229.00;;;2.87;61.44
6853;BME280;3465;42.144;24.722;2024-01-10T09:10:19;101229.09;;;2.75;61.12
6853;BME280;3465;42.144;24.722;2024-01-10T09:12:46;101224.09;;;2.50;62.58
6853;BME280;3465;42.144;24.722;2024-01-10T09:15:12;101224.16;;;2.41;63.85
6853;BME280;3465;42.144;24.722;2024-01-10T09:17:43;101225.78;;;2.54;63.36
6853;BME280;3465;42.144;24.722;2024-01-10T09:20:09;101220.50;;;2.83;62.19
6853;BME280;3465;42.144;24.722;2024-01-10T09:22:35;101224.88;;;2.68;63.17
6853;BME280;3465;42.144;24.722;2024-01-10T09:25:00;101217.94;;;2.79;62.70
6853;BME280;3465;42.144;24.722;2024-01-10T09:27:33;101228.97;;;2.94;62.66
6853;BME280;3465;42.144;24.722;2024-01-10T09:30:02;101225.47;;;3.06;60.81
6853;BME280;3465;42.144;24.722;2024-01-10T09:32:28;101212.72;;;2.92;62.91
6853;BME280;3465;42.144;24.722;2024-01-10T09:34:56;101211.00;;;2.93;63.41
6853;BME280;3465;42.144;24.722;2024-01-10T09:37:23;101217.63;;;3.21;61.10
6853;BME280;3465;42.144;24.722;2024-01-10T09:39:49;101202.91;;;3.44;61.71
6853;BME280;3465;42.144;24.722;2024-01-10T09:42:14;101206.66;;;3.02;61.50
6853;BME280;3465;42.144;24.722;2024-01-10T09:44:41;101208.16;;;3.27;60.47
6853;BME280;3465;42.144;24.722;2024-01-10T09:47:07;101205.63;;;3.23;60.71
6853;BME280;3465;42.144;24.722;2024-01-10T09:49:32;101201.47;;;3.08;62.39
6853;BME280;3465;42.144;24.722;2024-01-10T09:51:59;101199.66;;;3.21;62.79
6853;BME280;3465;42.144;24.722;2024-01-10T09:54:30;101191.03;;;3.29;60.22
6853;BME280;3465;42.144;24.722;2024-01-10T09:56:59;101186.13;;;3.05;63.00
6853;BME280;3465;42.144;24.722;2024-01-10T09:59:25;101191.94;;;3.24;64.39
6853;BME280;3465;42.144;24.722;2024-01-10T10:01:56;101190.06;;;3.41;63.67
6853;BME280;3465;42.144;24.722;2024-01-10T10:04:24;101191.41;;;3.77;60.98
6853;BME280;3465;42.144;24.722;2024-01-10T10:07:01;101180.56;;;3.52;61.83
6853;BME280;3465;42.144;24.722;2024-01-10T10:09:28;101175.34;;;3.58;60.97
6853;BME280;3465;42.144;24.722;2024-01-10T10:11:55;101176.13;;;3.66;58.87
6853;BME280;3465;42.144;24.722;2024-01-10T10:14:21;101178.72;;;3.62;59.29
6853;BME280;3465;42.144;24.722;2024-01-10T10:16:47;101168.19;;;3.86;60.75
6853;BME280;3465;42.144;24.722;2024-01-10T10:19:12;101170.38;;;3.41;58.03
6853;BME280;3465;42.144;24.722;2024-01-10T10:21:47;101172.03;;;3.47;58.50
6853;BME280;3465;42.144;24.722;2024-01-10T10:24:12;101175.09;;;2.91;56.70
6853;BME280;3465;42.144;24.722;2024-01-10T10:26:38;101170.50;;;2.07;59.15
6853;BME280;3465;42.144;24.722;2024-01-10T10:29:03;101163.63;;;2.10;61.42
6853;BME280;3465;42.144;24.722;2024-01-10T10:31:30;101164.22;;;2.56;61.17
6853;BME280;3465;42.144;24.722;2024-01-10T10:33:59;101152.25;;;2.60;60.82
6853;BME280;3465;42.144;24.722;2024-01-10T10:36:25;101144.47;;;2.69;59.72
6853;BME280;3465;42.144;24.722;2024-01-10T10:38:50;101142.56;;;2.95;60.17
6853;BME280;3465;42.144;24.722;2024-01-10T10:41:16;101149.94;;;3.29;60.16
6853;BME280;3465;42.144;24.722;2024-01-10T10:43:43;101145.16;;;2.92;58.71
6853;BME280;3465;42.144;24.722;2024-01-10T10:46:10;101116.13;;;2.87;58.98
6853;BME280;3465;42.144;24.722;2024-01-10T10:48:37;101134.94;;;2.84;60.29
6853;BME280;3465;42.144;24.722;2024-01-10T10:51:17;101133.84;;;3.12;59.89
6853;BME280;3465;42.144;24.722;2024-01-10T10:53:45;101137.25;;;3.13;59.06
6853;BME280;3465;42.144;24.722;2024-01-10T10:56:11;101136.09;;;3.42;59.77
6853;BME280;3465;42.144;24.722;2024-01-10T10:58:39;101132.69;;;3.43;56.67
6853;BME280;3465;42.144;24.722;2024-01-10T11:01:07;101123.44;;;3.27;56.85
6853;BME280;3465;42.144;24.722;2024-01-10T11:03:37;101116.59;;;3.28;57.35
6853;BME280;3465;42.144;24.722;2024-01-10T11:06:03;101121.69;;;3.31;54.59
6853;BME280;3465;42.144;24.722;2024-01-10T11:08:36;101106.44;;;3.16;57.76
6853;BME280;3465;42.144;24.722;2024-01-10T11:11:04;101119.09;;;3.34;55.41
6853;BME280;3465;42.144;24.722;2024-01-10T11:13:54;101112.47;;;3.12;56.31
6853;BME280;3465;42.144;24.722;2024-01-10T11:22:51;101102.09;;;3.24;57.96
6853;BME280;3465;42.144;24.722;2024-01-10T11:25:17;101098.63;;;3.25;57.55
6853;BME280;3465;42.144;24.722;2024-01-10T11:27:43;101089.00;;;3.45;56.16
6853;BME280;3465;42.144;24.722;2024-01-10T11:30:10;101092.34;;;3.53;56.00
6853;BME280;3465;42.144;24.722;2024-01-10T11:32:37;101085.25;;;3.73;57.71
6853;BME280;3465;42.144;24.722;2024-01-10T11:35:11;101087.69;;;4.45;57.19
6853;BME280;3465;42.144;24.722;2024-01-10T11:37:44;101077.13;;;5.10;55.23
6853;BME280;3465;42.144;24.722;2024-01-10T11:40:12;101074.88;;;6.22;51.32
6853;BME280;3465;42.144;24.722;2024-01-10T11:45:06;101055.47;;;11.26;39.01
6853;BME280;3465;42.144;24.722;2024-01-10T11:47:33;101051.91;;;13.27;33.30
6853;BME280;3465;42.144;24.722;2024-01-10T11:50:02;101056.50;;;13.87;31.92
6853;BME280;3465;42.144;24.722;2024-01-10T11:52:37;101048.97;;;14.89;29.56
6853;BME280;3465;42.144;24.722;2024-01-10T11:55:02;101047.97;;;15.19;28.56
6853;BME280;3465;42.144;24.722;2024-01-10T11:57:30;101046.22;;;15.20;28.49
6853;BME280;3465;42.144;24.722;2024-01-10T11:59:58;101036.72;;;13.50;31.03
6853;BME280;3465;42.144;24.722;2024-01-10T12:02:26;101035.97;;;11.93;33.87
6853;BME280;3465;42.144;24.722;2024-01-10T12:04:53;101043.88;;;11.53;35.67
6853;BME280;3465;42.144;24.722;2024-01-10T12:07:19;101043.69;;;10.98;35.76
6853;BME280;3465;42.144;24.722;2024-01-10T12:09:45;101033.88;;;10.22;38.38
6853;BME280;3465;42.144;24.722;2024-01-10T12:12:12;101033.88;;;9.77;37.41
6853;BME280;3465;42.144;24.722;2024-01-10T12:14:38;101033.88;;;9.77;36.53
6853;BME280;3465;42.144;24.722;2024-01-10T12:17:05;101041.22;;;9.18;37.87
6853;BME280;3465;42.144;24.722;2024-01-10T12:19:30;101029.81;;;9.23;39.14
6853;BME280;3465;42.144;24.722;2024-01-10T12:21:57;101024.88;;;9.16;39.81
6853;BME280;3465;42.144;24.722;2024-01-10T12:24:22;101024.00;;;8.92;39.11
6853;BME280;3465;42.144;24.722;2024-01-10T12:26:49;101022.16;;;8.45;41.78
6853;BME280;3465;42.144;24.722;2024-01-10T12:29:19;101013.13;;;9.06;40.03
6853;BME280;3465;42.144;24.722;2024-01-10T12:31:48;101014.53;;;9.62;38.77
6853;BME280;3465;42.144;24.722;2024-01-10T12:34:14;101016.25;;;9.85;39.40
6853;BME280;3465;42.144;24.722;2024-01-10T12:36:41;101016.56;;;9.99;39.32
6853;BME280;3465;42.144;24.722;2024-01-10T12:39:07;101011.78;;;10.11;38.60
6853;BME280;3465;42.144;24.722;2024-01-10T12:41:33;101013.50;;;10.33;38.90
6853;BME280;3465;42.144;24.722;2024-01-10T12:44:03;101011.69;;;11.17;37.22
6853;BME280;3465;42.144;24.722;2024-01-10T12:46:30;101003.69;;;12.67;31.88
6853;BME280;3465;42.144;24.722;2024-01-10T12:49:04;100994.25;;;12.82;28.88
6853;BME280;3465;42.144;24.722;2024-01-10T12:51:31;100999.03;;;11.85;30.97
6853;BME280;3465;42.144;24.722;2024-01-10T12:54:00;101000.69;;;10.50;33.48
6853;BME280;3465;42.144;24.722;2024-01-10T12:56:26;100998.31;;;10.24;33.04
6853;BME280;3465;42.144;24.722;2024-01-10T12:58:53;100995.09;;;9.51;36.10
6853;BME280;3465;42.144;24.722;2024-01-10T13:01:20;100998.56;;;8.79;36.18
6853;BME280;3465;42.144;24.722;2024-01-10T13:03:46;100983.16;;;7.39;39.35
6853;BME280;3465;42.144;24.722;2024-01-10T13:06:11;101015.78;;;6.48;39.74
6853;BME280;3465;42.144;24.722;2024-01-10T13:08:37;101011.69;;;6.03;41.41
6853;BME280;3465;42.144;24.722;2024-01-10T13:11:02;101012.38;;;5.71;42.38
6853;BME280;3465;42.144;24.722;2024-01-10T13:13:36;101016.19;;;5.52;44.32
6853;BME280;3465;42.144;24.722;2024-01-10T13:16:02;101018.00;;;5.48;44.86
6853;BME280;3465;42.144;24.722;2024-01-10T13:18:28;101013.88;;;5.40;46.85
6853;BME280;3465;42.144;24.722;2024-01-10T13:20:54;101012.63;;;5.16;49.28